sensor_id;sensor_type;location;lat;lon;timestamp;P1;durP1;ratioP1;P2;durP2;ratioP2
27558;SDS011;15002;52.028;5.670;2023-03-23T00:00:37;8.18;;;4.28;;
27558;SDS011;15002;52.028;5.670;2023-03-23T00:03:03;10.70;;;3.58;;
27558;SDS011;15002;52.028;5.670;2023-03-23T00:05:29;7.68;;;4.03;;
27558;SDS011;15002;52.028;5.670;2023-03-23T00:07:55;8.90;;;4.30;;
27558;SDS011;15002;52.028;5.670;2023-03-23T00:10:21;10.00;;;4.40;;
27558;SDS011;15002;52.028;5.670;2023-03-23T00:36:20;9.10;;;4.20;;
27558;SDS011;15002;52.028;5.670;2023-03-23T00:38:48;7.63;;;3.75;;
27558;SDS011;15002;52.028;5.670;2023-03-23T00:41:13;5.40;;;3.85;;
27558;SDS011;15002;52.028;5.670;2023-03-23T00:43:40;7.80;;;3.80;;
27558;SDS011;15002;52.028;5.670;2023-03-23T00:46:05;6.65;;;4.53;;
27558;SDS011;15002;52.028;5.670;2023-03-23T00:48:35;6.03;;;3.70;;
27558;SDS011;15002;52.028;5.670;2023-03-23T00:51:02;5.70;;;3.75;;
27558;SDS011;15002;52.028;5.670;2023-03-23T00:53:36;6.18;;;3.95;;
27558;SDS011;15002;52.028;5.670;2023-03-23T00:56:02;8.23;;;3.63;;
27558;SDS011;15002;52.028;5.670;2023-03-23T01:01:03;5.72;;;3.97;;
27558;SDS011;15002;52.028;5.670;2023-03-23T01:03:29;7.45;;;3.97;;
27558;SDS011;15002;52.028;5.670;2023-03-23T01:05:55;8.25;;;3.78;;
27558;SDS011;15002;52.028;5.670;2023-03-23T01:08:21;7.30;;;3.70;;
27558;SDS011;15002;52.028;5.670;2023-03-23T01:10:48;7.03;;;3.80;;
27558;SDS011;15002;52.028;5.670;2023-03-23T01:13:15;6.45;;;3.88;;
27558;SDS011;15002;52.028;5.670;2023-03-23T01:15:41;6.50;;;3.25;;
27558;SDS011;15002;52.028;5.670;2023-03-23T01:18:08;7.45;;;3.60;;
27558;SDS011;15002;52.028;5.670;2023-03-23T01:20:34;6.20;;;3.78;;
27558;SDS011;15002;52.028;5.670;2023-03-23T01:23:01;6.78;;;3.53;;
27558;SDS011;15002;52.028;5.670;2023-03-23T01:25:28;6.40;;;3.70;;
27558;SDS011;15002;52.028;5.670;2023-03-23T01:27:56;5.80;;;3.22;;
27558;SDS011;15002;52.028;5.670;2023-03-23T01:30:23;6.88;;;3.45;;
27558;SDS011;15002;52.028;5.670;2023-03-23T01:32:49;4.90;;;3.05;;
27558;SDS011;15002;52.028;5.670;2023-03-23T01:35:15;5.82;;;3.03;;
27558;SDS011;15002;52.028;5.670;2023-03-23T01:37:41;6.28;;;3.53;;
27558;SDS011;15002;52.028;5.670;2023-03-23T01:40:07;6.88;;;3.38;;
27558;SDS011;15002;52.028;5.670;2023-03-23T01:42:36;6.35;;;3.80;;
27558;SDS011;15002;52.028;5.670;2023-03-23T01:48:00;7.03;;;4.00;;
27558;SDS011;15002;52.028;5.670;2023-03-23T01:50:31;5.43;;;3.58;;
27558;SDS011;15002;52.028;5.670;2023-03-23T01:53:06;4.50;;;3.58;;
27558;SDS011;15002;52.028;5.670;2023-03-23T01:55:34;6.10;;;3.80;;
27558;SDS011;15002;52.028;5.670;2023-03-23T01:58:03;5.95;;;3.75;;
27558;SDS011;15002;52.028;5.670;2023-03-23T02:00:29;4.75;;;3.80;;
27558;SDS011;15002;52.028;5.670;2023-03-23T02:02:55;7.88;;;4.28;;
27558;SDS011;15002;52.028;5.670;2023-03-23T02:05:26;6.82;;;4.10;;
27558;SDS011;15002;52.028;5.670;2023-03-23T02:08:03;5.57;;;3.78;;
27558;SDS011;15002;52.028;5.670;2023-03-23T02:10:32;6.77;;;3.80;;
27558;SDS011;15002;52.028;5.670;2023-03-23T02:12:59;5.70;;;3.90;;
27558;SDS011;15002;52.028;5.670;2023-03-23T02:15:27;7.75;;;3.67;;
27558;SDS011;15002;52.028;5.670;2023-03-23T02:18:08;5.43;;;3.83;;
27558;SDS011;15002;52.028;5.670;2023-03-23T02:34:58;4.88;;;3.92;;
27558;SDS011;15002;52.028;5.670;2023-03-23T02:37:04;9.02;;;4.25;;
27558;SDS011;15002;52.028;5.670;2023-03-23T02:39:49;6.88;;;3.90;;
27558;SDS011;15002;52.028;5.670;2023-03-23T02:42:26;5.60;;;3.67;;
27558;SDS011;15002;52.028;5.670;2023-03-23T02:44:56;8.15;;;4.22;;
27558;SDS011;15002;52.028;5.670;2023-03-23T02:47:29;5.20;;;3.90;;
27558;SDS011;15002;52.028;5.670;2023-03-23T02:49:55;6.55;;;3.75;;
27558;SDS011;15002;52.028;5.670;2023-03-23T02:52:25;7.40;;;4.22;;
27558;SDS011;15002;52.028;5.670;2023-03-23T02:54:54;6.78;;;4.30;;
27558;SDS011;15002;52.028;5.670;2023-03-23T02:57:21;5.97;;;4.32;;
27558;SDS011;15002;52.028;5.670;2023-03-23T02:59:48;4.72;;;3.90;;
27558;SDS011;15002;52.028;5.670;2023-03-23T03:02:16;7.25;;;4.47;;
27558;SDS011;15002;52.028;5.670;2023-03-23T03:10:23;7.18;;;4.78;;
27558;SDS011;15002;52.028;5.670;2023-03-23T03:13:02;5.32;;;4.32;;
27558;SDS011;15002;52.028;5.670;2023-03-23T03:15:48;8.45;;;4.15;;
27558;SDS011;15002;52.028;5.670;2023-03-23T03:18:24;7.25;;;4.20;;
27558;SDS011;15002;52.028;5.670;2023-03-23T03:20:59;6.15;;;4.20;;
27558;SDS011;15002;52.028;5.670;2023-03-23T03:23:29;7.13;;;4.25;;
27558;SDS011;15002;52.028;5.670;2023-03-23T03:25:57;7.28;;;4.22;;
27558;SDS011;15002;52.028;5.670;2023-03-23T03:28:26;6.03;;;3.67;;
27558;SDS011;15002;52.028;5.670;2023-03-23T03:30:56;7.25;;;4.30;;
27558;SDS011;15002;52.028;5.670;2023-03-23T03:33:25;8.00;;;3.50;;
27558;SDS011;15002;52.028;5.670;2023-03-23T03:35:56;7.40;;;3.72;;
27558;SDS011;15002;52.028;5.670;2023-03-23T03:38:25;8.02;;;3.20;;
27558;SDS011;15002;52.028;5.670;2023-03-23T03:40:51;6.60;;;3.28;;
27558;SDS011;15002;52.028;5.670;2023-03-23T03:43:19;9.30;;;3.72;;
27558;SDS011;15002;52.028;5.670;2023-03-23T03:45:45;7.15;;;3.75;;
27558;SDS011;15002;52.028;5.670;2023-03-23T03:48:11;6.38;;;3.90;;
27558;SDS011;15002;52.028;5.670;2023-03-23T03:50:37;5.78;;;3.60;;
27558;SDS011;15002;52.028;5.670;2023-03-23T03:53:02;6.38;;;3.50;;
27558;SDS011;15002;52.028;5.670;2023-03-23T03:55:29;6.25;;;3.70;;
27558;SDS011;15002;52.028;5.670;2023-03-23T03:58:00;7.63;;;4.07;;
27558;SDS011;15002;52.028;5.670;2023-03-23T04:00:26;6.07;;;3.90;;
27558;SDS011;15002;52.028;5.670;2023-03-23T04:02:52;5.32;;;3.60;;
27558;SDS011;15002;52.028;5.670;2023-03-23T04:05:20;5.43;;;3.05;;
27558;SDS011;15002;52.028;5.670;2023-03-23T04:07:46;6.30;;;3.22;;
27558;SDS011;15002;52.028;5.670;2023-03-23T04:10:16;6.53;;;3.35;;
27558;SDS011;15002;52.028;5.670;2023-03-23T04:12:44;5.55;;;3.30;;
27558;SDS011;15002;52.028;5.670;2023-03-23T04:15:10;7.93;;;3.75;;
27558;SDS011;15002;52.028;5.670;2023-03-23T04:17:36;4.80;;;3.33;;
27558;SDS011;15002;52.028;5.670;2023-03-23T04:20:03;6.35;;;3.40;;
27558;SDS011;15002;52.028;5.670;2023-03-23T04:22:38;4.68;;;2.92;;
27558;SDS011;15002;52.028;5.670;2023-03-23T04:25:08;7.57;;;3.15;;
27558;SDS011;15002;52.028;5.670;2023-03-23T04:27:37;6.10;;;2.95;;
27558;SDS011;15002;52.028;5.670;2023-03-23T04:30:04;5.70;;;3.15;;
27558;SDS011;15002;52.028;5.670;2023-03-23T04:32:31;6.45;;;3.13;;
27558;SDS011;15002;52.028;5.670;2023-03-23T04:34:57;5.38;;;2.80;;
27558;SDS011;15002;52.028;5.670;2023-03-23T04:37:24;5.13;;;2.90;;
27558;SDS011;15002;52.028;5.670;2023-03-23T04:39:53;6.20;;;2.70;;
27558;SDS011;15002;52.028;5.670;2023-03-23T04:42:29;8.15;;;3.42;;
27558;SDS011;15002;52.028;5.670;2023-03-23T04:44:56;4.35;;;2.38;;
27558;SDS011;15002;52.028;5.670;2023-03-23T04:47:24;8.68;;;3.20;;
27558;SDS011;15002;52.028;5.670;2023-03-23T04:49:54;4.68;;;2.85;;
27558;SDS011;15002;52.028;5.670;2023-03-23T04:52:21;7.25;;;2.92;;
27558;SDS011;15002;52.028;5.670;2023-03-23T04:54:47;7.22;;;2.97;;
27558;SDS011;15002;52.028;5.670;2023-03-23T04:57:12;4.55;;;2.90;;
27558;SDS011;15002;52.028;5.670;2023-03-23T04:59:40;6.47;;;2.42;;
27558;SDS011;15002;52.028;5.670;2023-03-23T05:02:06;5.20;;;2.50;;
27558;SDS011;15002;52.028;5.670;2023-03-23T05:04:32;7.03;;;2.20;;
27558;SDS011;15002;52.028;5.670;2023-03-23T05:06:58;12.60;;;2.70;;
27558;SDS011;15002;52.028;5.670;2023-03-23T05:09:24;11.27;;;2.80;;
27558;SDS011;15002;52.028;5.670;2023-03-23T05:11:49;8.10;;;2.55;;
27558;SDS011;15002;52.028;5.670;2023-03-23T05:14:15;7.78;;;2.28;;
27558;SDS011;15002;52.028;5.670;2023-03-23T05:16:41;3.58;;;1.90;;
27558;SDS011;15002;52.028;5.670;2023-03-23T05:19:06;9.05;;;2.20;;
27558;SDS011;15002;52.028;5.670;2023-03-23T05:21:33;8.18;;;2.75;;
27558;SDS011;15002;52.028;5.670;2023-03-23T05:23:59;8.75;;;2.42;;
27558;SDS011;15002;52.028;5.670;2023-03-23T05:26:26;6.90;;;2.78;;
27558;SDS011;15002;52.028;5.670;2023-03-23T05:28:55;7.18;;;2.38;;
27558;SDS011;15002;52.028;5.670;2023-03-23T05:31:21;8.02;;;2.53;;
27558;SDS011;15002;52.028;5.670;2023-03-23T05:33:47;4.53;;;2.38;;
27558;SDS011;15002;52.028;5.670;2023-03-23T05:36:13;7.57;;;2.38;;
27558;SDS011;15002;52.028;5.670;2023-03-23T05:38:39;10.55;;;2.30;;
27558;SDS011;15002;52.028;5.670;2023-03-23T05:41:10;6.57;;;2.63;;
27558;SDS011;15002;52.028;5.670;2023-03-23T05:43:36;6.57;;;2.22;;
27558;SDS011;15002;52.028;5.670;2023-03-23T05:46:01;8.73;;;2.75;;
27558;SDS011;15002;52.028;5.670;2023-03-23T05:48:27;6.97;;;2.20;;
27558;SDS011;15002;52.028;5.670;2023-03-23T05:50:53;6.53;;;2.10;;
27558;SDS011;15002;52.028;5.670;2023-03-23T05:53:19;6.70;;;2.70;;
27558;SDS011;15002;52.028;5.670;2023-03-23T05:55:45;6.25;;;2.00;;
27558;SDS011;15002;52.028;5.670;2023-03-23T05:58:11;8.23;;;2.63;;
27558;SDS011;15002;52.028;5.670;2023-03-23T06:00:37;6.47;;;2.17;;
27558;SDS011;15002;52.028;5.670;2023-03-23T06:03:04;8.10;;;2.35;;
27558;SDS011;15002;52.028;5.670;2023-03-23T06:05:30;8.90;;;2.58;;
27558;SDS011;15002;52.028;5.670;2023-03-23T06:07:57;7.75;;;2.58;;
27558;SDS011;15002;52.028;5.670;2023-03-23T06:10:23;8.52;;;2.15;;
27558;SDS011;15002;52.028;5.670;2023-03-23T06:12:49;6.32;;;1.90;;
27558;SDS011;15002;52.028;5.670;2023-03-23T06:15:16;7.28;;;1.95;;
27558;SDS011;15002;52.028;5.670;2023-03-23T06:17:42;8.43;;;2.20;;
27558;SDS011;15002;52.028;5.670;2023-03-23T06:20:08;12.00;;;2.13;;
27558;SDS011;15002;52.028;5.670;2023-03-23T06:22:38;6.00;;;2.22;;
27558;SDS011;15002;52.028;5.670;2023-03-23T06:25:08;6.45;;;2.47;;
27558;SDS011;15002;52.028;5.670;2023-03-23T06:27:36;6.45;;;2.25;;
27558;SDS011;15002;52.028;5.670;2023-03-23T06:30:03;3.83;;;1.50;;
27558;SDS011;15002;52.028;5.670;2023-03-23T06:32:30;8.90;;;2.35;;
27558;SDS011;15002;52.028;5.670;2023-03-23T06:34:57;4.85;;;1.90;;
27558;SDS011;15002;52.028;5.670;2023-03-23T06:37:23;4.60;;;1.92;;
27558;SDS011;15002;52.028;5.670;2023-03-23T06:39:50;5.70;;;1.98;;
27558;SDS011;15002;52.028;5.670;2023-03-23T06:42:17;9.68;;;2.30;;
27558;SDS011;15002;52.028;5.670;2023-03-23T06:44:43;7.88;;;2.00;;
27558;SDS011;15002;52.028;5.670;2023-03-23T06:47:09;4.60;;;1.67;;
27558;SDS011;15002;52.028;5.670;2023-03-23T06:49:34;7.43;;;2.08;;
27558;SDS011;15002;52.028;5.670;2023-03-23T06:52:00;4.93;;;1.73;;
27558;SDS011;15002;52.028;5.670;2023-03-23T06:54:28;4.68;;;1.83;;
27558;SDS011;15002;52.028;5.670;2023-03-23T06:56:54;5.07;;;2.30;;
27558;SDS011;15002;52.028;5.670;2023-03-23T06:59:19;7.22;;;2.15;;
27558;SDS011;15002;52.028;5.670;2023-03-23T07:01:45;5.28;;;1.75;;
27558;SDS011;15002;52.028;5.670;2023-03-23T07:04:11;6.70;;;2.20;;
27558;SDS011;15002;52.028;5.670;2023-03-23T07:06:37;7.35;;;2.33;;
27558;SDS011;15002;52.028;5.670;2023-03-23T07:09:03;7.75;;;2.97;;
27558;SDS011;15002;52.028;5.670;2023-03-23T07:11:29;10.20;;;2.20;;
27558;SDS011;15002;52.028;5.670;2023-03-23T07:13:55;10.68;;;3.10;;
27558;SDS011;15002;52.028;5.670;2023-03-23T07:16:21;7.30;;;2.03;;
27558;SDS011;15002;52.028;5.670;2023-03-23T07:18:46;7.32;;;2.30;;
27558;SDS011;15002;52.028;5.670;2023-03-23T07:21:12;10.32;;;2.65;;
27558;SDS011;15002;52.028;5.670;2023-03-23T07:23:38;5.53;;;2.15;;
27558;SDS011;15002;52.028;5.670;2023-03-23T07:26:03;12.43;;;2.22;;
27558;SDS011;15002;52.028;5.670;2023-03-23T07:28:29;7.95;;;2.00;;
27558;SDS011;15002;52.028;5.670;2023-03-23T07:30:56;7.43;;;1.77;;
27558;SDS011;15002;52.028;5.670;2023-03-23T07:33:21;6.88;;;2.20;;
27558;SDS011;15002;52.028;5.670;2023-03-23T07:35:47;12.90;;;2.45;;
27558;SDS011;15002;52.028;5.670;2023-03-23T07:38:13;6.80;;;2.10;;
27558;SDS011;15002;52.028;5.670;2023-03-23T07:40:39;4.95;;;1.88;;
27558;SDS011;15002;52.028;5.670;2023-03-23T07:43:05;5.45;;;2.05;;
27558;SDS011;15002;52.028;5.670;2023-03-23T07:45:32;6.82;;;1.83;;
27558;SDS011;15002;52.028;5.670;2023-03-23T07:47:58;9.70;;;1.98;;
27558;SDS011;15002;52.028;5.670;2023-03-23T07:50:24;4.97;;;2.03;;
27558;SDS011;15002;52.028;5.670;2023-03-23T07:52:51;8.13;;;2.25;;
27558;SDS011;15002;52.028;5.670;2023-03-23T07:55:19;7.65;;;2.45;;
27558;SDS011;15002;52.028;5.670;2023-03-23T07:57:48;6.45;;;2.10;;
27558;SDS011;15002;52.028;5.670;2023-03-23T08:00:14;10.30;;;2.78;;
27558;SDS011;15002;52.028;5.670;2023-03-23T08:02:45;6.43;;;2.47;;
27558;SDS011;15002;52.028;5.670;2023-03-23T08:05:12;6.15;;;2.63;;
27558;SDS011;15002;52.028;5.670;2023-03-23T08:07:38;5.80;;;2.47;;
27558;SDS011;15002;52.028;5.670;2023-03-23T08:10:05;9.02;;;2.90;;
27558;SDS011;15002;52.028;5.670;2023-03-23T08:12:35;7.70;;;2.67;;
27558;SDS011;15002;52.028;5.670;2023-03-23T08:15:02;8.38;;;2.70;;
27558;SDS011;15002;52.028;5.670;2023-03-23T08:17:29;10.23;;;3.13;;
27558;SDS011;15002;52.028;5.670;2023-03-23T08:19:54;6.47;;;2.70;;
27558;SDS011;15002;52.028;5.670;2023-03-23T08:22:20;6.68;;;2.90;;
27558;SDS011;15002;52.028;5.670;2023-03-23T08:24:46;9.75;;;3.03;;
27558;SDS011;15002;52.028;5.670;2023-03-23T08:27:11;5.82;;;3.15;;
27558;SDS011;15002;52.028;5.670;2023-03-23T08:29:37;7.38;;;3.42;;
27558;SDS011;15002;52.028;5.670;2023-03-23T08:32:03;6.00;;;3.20;;
27558;SDS011;15002;52.028;5.670;2023-03-23T08:34:29;8.43;;;3.22;;
27558;SDS011;15002;52.028;5.670;2023-03-23T08:36:56;9.05;;;3.03;;
27558;SDS011;15002;52.028;5.670;2023-03-23T08:39:21;7.93;;;2.75;;
27558;SDS011;15002;52.028;5.670;2023-03-23T08:41:48;7.93;;;2.38;;
27558;SDS011;15002;52.028;5.670;2023-03-23T08:44:14;8.85;;;2.72;;
27558;SDS011;15002;52.028;5.670;2023-03-23T08:46:40;7.55;;;2.40;;
27558;SDS011;15002;52.028;5.670;2023-03-23T08:49:06;6.15;;;2.33;;
27558;SDS011;15002;52.028;5.670;2023-03-23T08:51:32;4.80;;;2.13;;
27558;SDS011;15002;52.028;5.670;2023-03-23T08:53:57;5.47;;;2.58;;
27558;SDS011;15002;52.028;5.670;2023-03-23T08:56:23;5.30;;;1.80;;
27558;SDS011;15002;52.028;5.670;2023-03-23T08:58:49;9.35;;;2.00;;
27558;SDS011;15002;52.028;5.670;2023-03-23T09:01:15;6.28;;;2.13;;
27558;SDS011;15002;52.028;5.670;2023-03-23T09:03:41;6.10;;;1.90;;
27558;SDS011;15002;52.028;5.670;2023-03-23T09:06:07;5.43;;;1.90;;
27558;SDS011;15002;52.028;5.670;2023-03-23T09:08:34;6.07;;;2.00;;
27558;SDS011;15002;52.028;5.670;2023-03-23T09:11:04;6.35;;;1.63;;
27558;SDS011;15002;52.028;5.670;2023-03-23T09:13:32;5.90;;;2.13;;
27558;SDS011;15002;52.028;5.670;2023-03-23T09:15:58;5.15;;;1.80;;
27558;SDS011;15002;52.028;5.670;2023-03-23T09:18:24;4.13;;;1.67;;
27558;SDS011;15002;52.028;5.670;2023-03-23T09:20:50;7.03;;;1.58;;
27558;SDS011;15002;52.028;5.670;2023-03-23T09:23:17;3.63;;;1.45;;
27558;SDS011;15002;52.028;5.670;2023-03-23T09:25:43;6.78;;;1.92;;
27558;SDS011;15002;52.028;5.670;2023-03-23T09:28:08;3.50;;;1.63;;
27558;SDS011;15002;52.028;5.670;2023-03-23T09:30:35;3.88;;;1.52;;
27558;SDS011;15002;52.028;5.670;2023-03-23T09:33:03;7.30;;;1.92;;
27558;SDS011;15002;52.028;5.670;2023-03-23T09:35:29;4.68;;;2.10;;
27558;SDS011;15002;52.028;5.670;2023-03-23T09:37:59;7.22;;;1.50;;
27558;SDS011;15002;52.028;5.670;2023-03-23T09:40:35;8.60;;;2.05;;
27558;SDS011;15002;52.028;5.670;2023-03-23T09:43:24;5.43;;;1.90;;
27558;SDS011;15002;52.028;5.670;2023-03-23T09:46:17;4.60;;;1.70;;
27558;SDS011;15002;52.028;5.670;2023-03-23T09:48:54;8.10;;;1.70;;
27558;SDS011;15002;52.028;5.670;2023-03-23T09:54:20;9.82;;;1.80;;
27558;SDS011;15002;52.028;5.670;2023-03-23T09:56:49;8.57;;;2.15;;
27558;SDS011;15002;52.028;5.670;2023-03-23T10:01:48;4.32;;;1.48;;
27558;SDS011;15002;52.028;5.670;2023-03-23T10:04:37;9.38;;;1.85;;
27558;SDS011;15002;52.028;5.670;2023-03-23T10:07:18;5.32;;;1.67;;
27558;SDS011;15002;52.028;5.670;2023-03-23T10:09:46;9.40;;;1.80;;
27558;SDS011;15002;52.028;5.670;2023-03-23T10:14:52;6.45;;;1.80;;
27558;SDS011;15002;52.028;5.670;2023-03-23T10:17:38;10.15;;;2.35;;
27558;SDS011;15002;52.028;5.670;2023-03-23T10:23:20;5.70;;;2.20;;
27558;SDS011;15002;52.028;5.670;2023-03-23T10:28:52;10.10;;;2.13;;
27558;SDS011;15002;52.028;5.670;2023-03-23T10:31:23;6.25;;;1.42;;
27558;SDS011;15002;52.028;5.670;2023-03-23T10:33:54;8.27;;;1.95;;
27558;SDS011;15002;52.028;5.670;2023-03-23T10:36:31;11.03;;;2.27;;
27558;SDS011;15002;52.028;5.670;2023-03-23T10:39:19;9.98;;;2.15;;
27558;SDS011;15002;52.028;5.670;2023-03-23T10:41:47;8.63;;;2.03;;
27558;SDS011;15002;52.028;5.670;2023-03-23T10:44:17;9.90;;;1.98;;
27558;SDS011;15002;52.028;5.670;2023-03-23T10:49:23;11.68;;;2.20;;
27558;SDS011;15002;52.028;5.670;2023-03-23T10:52:12;5.82;;;1.67;;
27558;SDS011;15002;52.028;5.670;2023-03-23T10:54:51;6.25;;;1.60;;
27558;SDS011;15002;52.028;5.670;2023-03-23T10:57:39;7.63;;;2.00;;
27558;SDS011;15002;52.028;5.670;2023-03-23T11:00:08;9.52;;;2.05;;
27558;SDS011;15002;52.028;5.670;2023-03-23T11:02:45;10.00;;;2.67;;
27558;SDS011;15002;52.028;5.670;2023-03-23T11:05:23;10.20;;;2.08;;
27558;SDS011;15002;52.028;5.670;2023-03-23T11:07:55;12.10;;;2.45;;
27558;SDS011;15002;52.028;5.670;2023-03-23T11:10:26;10.75;;;1.98;;
27558;SDS011;15002;52.028;5.670;2023-03-23T11:12:59;9.60;;;2.30;;
27558;SDS011;15002;52.028;5.670;2023-03-23T11:17:55;6.85;;;2.22;;
27558;SDS011;15002;52.028;5.670;2023-03-23T11:22:52;12.35;;;2.20;;
27558;SDS011;15002;52.028;5.670;2023-03-23T11:25:18;9.90;;;2.00;;
27558;SDS011;15002;52.028;5.670;2023-03-23T11:27:44;11.70;;;2.20;;
27558;SDS011;15002;52.028;5.670;2023-03-23T11:30:20;8.93;;;2.05;;
27558;SDS011;15002;52.028;5.670;2023-03-23T11:32:50;8.25;;;2.00;;
27558;SDS011;15002;52.028;5.670;2023-03-23T11:35:19;7.60;;;1.85;;
27558;SDS011;15002;52.028;5.670;2023-03-23T11:37:54;10.48;;;2.15;;
27558;SDS011;15002;52.028;5.670;2023-03-23T11:40:25;7.00;;;1.65;;
27558;SDS011;15002;52.028;5.670;2023-03-23T11:45:35;15.90;;;2.42;;
27558;SDS011;15002;52.028;5.670;2023-03-23T11:48:33;8.18;;;1.95;;
27558;SDS011;15002;52.028;5.670;2023-03-23T11:56:43;9.25;;;2.38;;
27558;SDS011;15002;52.028;5.670;2023-03-23T11:59:11;11.50;;;2.05;;
27558;SDS011;15002;52.028;5.670;2023-03-23T12:04:43;8.25;;;1.80;;
27558;SDS011;15002;52.028;5.670;2023-03-23T12:15:52;9.80;;;1.90;;
27558;SDS011;15002;52.028;5.670;2023-03-23T12:24:29;7.45;;;1.52;;
27558;SDS011;15002;52.028;5.670;2023-03-23T12:27:21;5.25;;;1.60;;
27558;SDS011;15002;52.028;5.670;2023-03-23T12:32:51;4.10;;;1.65;;
27558;SDS011;15002;52.028;5.670;2023-03-23T12:35:53;7.45;;;1.35;;
27558;SDS011;15002;52.028;5.670;2023-03-23T12:38:51;8.65;;;2.40;;
27558;SDS011;15002;52.028;5.670;2023-03-23T12:42:02;7.88;;;1.77;;
27558;SDS011;15002;52.028;5.670;2023-03-23T12:44:47;8.48;;;1.88;;
27558;SDS011;15002;52.028;5.670;2023-03-23T12:52:55;9.48;;;2.00;;
27558;SDS011;15002;52.028;5.670;2023-03-23T12:55:45;6.87;;;1.80;;
27558;SDS011;15002;52.028;5.670;2023-03-23T12:58:18;7.07;;;1.85;;
27558;SDS011;15002;52.028;5.670;2023-03-23T13:01:02;5.57;;;2.03;;
27558;SDS011;15002;52.028;5.670;2023-03-23T13:06:35;6.95;;;1.83;;
27558;SDS011;15002;52.028;5.670;2023-03-23T13:11:41;5.47;;;1.70;;
27558;SDS011;15002;52.028;5.670;2023-03-23T13:16:52;5.85;;;1.40;;
27558;SDS011;15002;52.028;5.670;2023-03-23T13:24:52;6.22;;;1.00;;
27558;SDS011;15002;52.028;5.670;2023-03-23T13:27:25;2.83;;;1.10;;
27558;SDS011;15002;52.028;5.670;2023-03-23T13:29:55;4.90;;;1.05;;
27558;SDS011;15002;52.028;5.670;2023-03-23T13:32:28;3.50;;;1.10;;
27558;SDS011;15002;52.028;5.670;2023-03-23T13:35:01;1.65;;;0.65;;
27558;SDS011;15002;52.028;5.670;2023-03-23T13:37:29;5.10;;;0.88;;
27558;SDS011;15002;52.028;5.670;2023-03-23T13:42:24;2.00;;;0.90;;
27558;SDS011;15002;52.028;5.670;2023-03-23T13:49:48;2.65;;;1.10;;
27558;SDS011;15002;52.028;5.670;2023-03-23T13:54:44;2.72;;;1.00;;
27558;SDS011;15002;52.028;5.670;2023-03-23T13:57:19;3.20;;;1.42;;
27558;SDS011;15002;52.028;5.670;2023-03-23T14:00:09;5.97;;;1.45;;
27558;SDS011;15002;52.028;5.670;2023-03-23T14:10:38;7.18;;;2.25;;
27558;SDS011;15002;52.028;5.670;2023-03-23T14:13:11;7.47;;;1.77;;
27558;SDS011;15002;52.028;5.670;2023-03-23T14:15:53;4.18;;;1.90;;
27558;SDS011;15002;52.028;5.670;2023-03-23T14:18:26;5.32;;;1.98;;
27558;SDS011;15002;52.028;5.670;2023-03-23T14:20:55;6.95;;;2.20;;
27558;SDS011;15002;52.028;5.670;2023-03-23T14:23:22;6.65;;;2.25;;
27558;SDS011;15002;52.028;5.670;2023-03-23T14:25:55;9.68;;;2.28;;
27558;SDS011;15002;52.028;5.670;2023-03-23T14:28:32;4.60;;;2.10;;
27558;SDS011;15002;52.028;5.670;2023-03-23T14:31:01;7.85;;;2.28;;
27558;SDS011;15002;52.028;5.670;2023-03-23T14:33:28;6.57;;;2.17;;
27558;SDS011;15002;52.028;5.670;2023-03-23T14:35:53;6.35;;;2.20;;
27558;SDS011;15002;52.028;5.670;2023-03-23T14:38:23;7.93;;;1.83;;
27558;SDS011;15002;52.028;5.670;2023-03-23T14:40:53;5.57;;;1.65;;
27558;SDS011;15002;52.028;5.670;2023-03-23T14:43:24;5.13;;;1.42;;
27558;SDS011;15002;52.028;5.670;2023-03-23T14:45:54;8.27;;;1.48;;
27558;SDS011;15002;52.028;5.670;2023-03-23T14:48:21;6.40;;;1.50;;
27558;SDS011;15002;52.028;5.670;2023-03-23T14:50:51;8.95;;;1.48;;
27558;SDS011;15002;52.028;5.670;2023-03-23T14:53:25;7.95;;;1.52;;
27558;SDS011;15002;52.028;5.670;2023-03-23T14:55:58;7.57;;;1.75;;
27558;SDS011;15002;52.028;5.670;2023-03-23T14:58:29;7.75;;;1.40;;
27558;SDS011;15002;52.028;5.670;2023-03-23T15:01:17;6.10;;;1.50;;
27558;SDS011;15002;52.028;5.670;2023-03-23T15:04:06;6.70;;;1.75;;
27558;SDS011;15002;52.028;5.670;2023-03-23T15:06:34;6.20;;;1.60;;
27558;SDS011;15002;52.028;5.670;2023-03-23T15:09:09;6.03;;;1.58;;
27558;SDS011;15002;52.028;5.670;2023-03-23T15:11:39;5.45;;;1.30;;
27558;SDS011;15002;52.028;5.670;2023-03-23T15:14:16;10.30;;;1.48;;
27558;SDS011;15002;52.028;5.670;2023-03-23T15:16:49;6.32;;;1.63;;
27558;SDS011;15002;52.028;5.670;2023-03-23T15:19:21;8.82;;;1.70;;
27558;SDS011;15002;52.028;5.670;2023-03-23T15:21:51;4.78;;;1.42;;
27558;SDS011;15002;52.028;5.670;2023-03-23T15:24:31;7.35;;;1.42;;
27558;SDS011;15002;52.028;5.670;2023-03-23T15:29:31;8.20;;;2.05;;
27558;SDS011;15002;52.028;5.670;2023-03-23T15:31:57;7.50;;;1.77;;
27558;SDS011;15002;52.028;5.670;2023-03-23T15:37:27;4.95;;;2.08;;
27558;SDS011;15002;52.028;5.670;2023-03-23T15:39:53;8.85;;;2.53;;
27558;SDS011;15002;52.028;5.670;2023-03-23T15:42:24;5.60;;;2.10;;
27558;SDS011;15002;52.028;5.670;2023-03-23T15:44:56;9.32;;;1.92;;
27558;SDS011;15002;52.028;5.670;2023-03-23T15:47:44;10.05;;;2.20;;
27558;SDS011;15002;52.028;5.670;2023-03-23T15:52:53;8.70;;;2.20;;
27558;SDS011;15002;52.028;5.670;2023-03-23T15:55:27;8.55;;;2.28;;
27558;SDS011;15002;52.028;5.670;2023-03-23T15:57:55;5.03;;;2.15;;
27558;SDS011;15002;52.028;5.670;2023-03-23T16:00:22;7.63;;;2.20;;
27558;SDS011;15002;52.028;5.670;2023-03-23T16:03:01;7.00;;;2.10;;
27558;SDS011;15002;52.028;5.670;2023-03-23T16:05:31;9.45;;;2.10;;
27558;SDS011;15002;52.028;5.670;2023-03-23T16:07:57;10.75;;;2.25;;
27558;SDS011;15002;52.028;5.670;2023-03-23T16:10:24;10.65;;;2.40;;
27558;SDS011;15002;52.028;5.670;2023-03-23T16:12:51;7.32;;;2.20;;
27558;SDS011;15002;52.028;5.670;2023-03-23T16:15:16;8.90;;;2.20;;
27558;SDS011;15002;52.028;5.670;2023-03-23T16:17:43;7.07;;;2.00;;
27558;SDS011;15002;52.028;5.670;2023-03-23T16:20:13;10.73;;;2.00;;
27558;SDS011;15002;52.028;5.670;2023-03-23T16:22:40;10.50;;;2.10;;
27558;SDS011;15002;52.028;5.670;2023-03-23T16:25:07;7.13;;;2.28;;
27558;SDS011;15002;52.028;5.670;2023-03-23T16:27:33;11.00;;;2.60;;
27558;SDS011;15002;52.028;5.670;2023-03-23T16:29:59;11.65;;;1.98;;
27558;SDS011;15002;52.028;5.670;2023-03-23T16:32:27;9.73;;;2.80;;
27558;SDS011;15002;52.028;5.670;2023-03-23T16:34:53;7.30;;;2.47;;
27558;SDS011;15002;52.028;5.670;2023-03-23T16:37:18;8.45;;;2.75;;
27558;SDS011;15002;52.028;5.670;2023-03-23T16:39:45;8.35;;;2.70;;
27558;SDS011;15002;52.028;5.670;2023-03-23T16:42:10;8.70;;;2.60;;
27558;SDS011;15002;52.028;5.670;2023-03-23T16:44:36;7.35;;;2.00;;
27558;SDS011;15002;52.028;5.670;2023-03-23T16:47:02;8.15;;;2.00;;
27558;SDS011;15002;52.028;5.670;2023-03-23T16:49:27;5.82;;;1.88;;
27558;SDS011;15002;52.028;5.670;2023-03-23T16:51:53;6.18;;;2.22;;
27558;SDS011;15002;52.028;5.670;2023-03-23T16:54:18;7.75;;;2.20;;
27558;SDS011;15002;52.028;5.670;2023-03-23T16:56:44;10.20;;;3.40;;
27558;SDS011;15002;52.028;5.670;2023-03-23T16:59:11;8.30;;;2.90;;
27558;SDS011;15002;52.028;5.670;2023-03-23T17:01:37;10.18;;;2.50;;
27558;SDS011;15002;52.028;5.670;2023-03-23T17:04:03;8.55;;;2.35;;
27558;SDS011;15002;52.028;5.670;2023-03-23T17:06:29;6.28;;;2.20;;
27558;SDS011;15002;52.028;5.670;2023-03-23T17:08:55;8.25;;;2.33;;
27558;SDS011;15002;52.028;5.670;2023-03-23T17:11:20;9.23;;;3.00;;
27558;SDS011;15002;52.028;5.670;2023-03-23T17:13:46;9.63;;;2.33;;
27558;SDS011;15002;52.028;5.670;2023-03-23T17:16:12;12.02;;;2.75;;
27558;SDS011;15002;52.028;5.670;2023-03-23T17:18:38;8.88;;;2.55;;
27558;SDS011;15002;52.028;5.670;2023-03-23T17:21:04;7.57;;;2.13;;
27558;SDS011;15002;52.028;5.670;2023-03-23T17:23:30;5.90;;;2.20;;